メインページ
METAR-TAF:

METAR-TAF

空港 :

Trenton-Mercer Airport

トレントン, ニュージャージー州, アメリカ合衆国

緯度: 40-16-35N, 経度: 074-48-59W, 海抜: 64m

現時点の気象観測

当レポートは8分前の02:53(UTC)に作成
の風 3kt
気温 5°C
湿度 33%
気圧 1020 hPa
視程: 16.1km
晴天

METAR: KTTN 240253Z 19003KT 10SM CLR 05/M10 A3011 RMK AO2 SLP191 T00501100 52004

時間: 22:01 (03:01 UTC)

予報

当レポートは3時間41分前の23:20(UTC)に作成
予報は24日の 00時(UTC)から 24日の 24時(UTC)まで有効
南西の風 6kt
視程: 10km
晴天
24日の 0200時(UTC)から
南/南西の風 4kt
視程: 10km
高度7000ftの雲は散在している
24日の 1500時(UTC)から
南/南西の風 4kt
視程: 10km
高度20000ftの雲は散在している
24日の 2000時(UTC)から
変向風 4kt
視程: 10km
高度15000ftの千切れ雲あり

TAF: KTTN 232320Z 2400/2424 22006KT P6SM SKC FM240200 20004KT P6SM SCT070 FM241500 21004KT P6SM SCT200 FM242000 VRB04KT P6SM BKN150

4,000以上の空港の気象観測と天気予報(METAR報とTAF報)

利用可能な観測所は地図上に黄色い丸と赤い丸で示す。

丸の上にカーソルを重ねると観測所名を参照できる。

次にクリックすると気象観測と天気予報を参照できる。

マップの切り替え:黒色「×」印の緑ボタンをクリックして拡大、「-」印の緑ボタンをクリックして縮小、緑色の三角印をクリックして隣りの地図に切り替え


METAR-TAF: